sensor_id;sensor_type;location;lat;lon;timestamp;pressure;altitude;pressure_sealevel;temperature;humidity
80986;BME280;70451;51.226;6.412;2023-10-09T00:00:14;101425.50;;;13.73;100.00
80986;BME280;70451;51.226;6.412;2023-10-09T00:02:48;101421.28;;;13.71;100.00
80986;BME280;70451;51.226;6.412;2023-10-09T00:05:04;101425.50;;;13.73;100.00
80986;BME280;70451;51.226;6.412;2023-10-09T00:07:25;101426.75;;;13.66;100.00
80986;BME280;70451;51.226;6.412;2023-10-09T00:09:41;101421.03;;;13.58;100.00
80986;BME280;70451;51.226;6.412;2023-10-09T00:12:03;101418.59;;;13.55;100.00
80986;BME280;70451;51.226;6.412;2023-10-09T00:14:26;101419.50;;;13.54;100.00
80986;BME280;70451;51.226;6.412;2023-10-09T00:16:42;101418.06;;;13.49;100.00
80986;BME280;70451;51.226;6.412;2023-10-09T00:19:05;101414.66;;;13.47;100.00
80986;BME280;70451;51.226;6.412;2023-10-09T00:21:34;101416.44;;;13.46;100.00
80986;BME280;70451;51.226;6.412;2023-10-09T00:23:53;101412.88;;;13.47;100.00
80986;BME280;70451;51.226;6.412;2023-10-09T00:26:14;101411.19;;;13.46;100.00
80986;BME280;70451;51.226;6.412;2023-10-09T00:28:31;101408.44;;;13.49;100.00
80986;BME280;70451;51.226;6.412;2023-10-09T00:30:47;101405.63;;;13.52;100.00
80986;BME280;70451;51.226;6.412;2023-10-09T00:33:02;101401.00;;;13.57;100.00
80986;BME280;70451;51.226;6.412;2023-10-09T00:35:19;101397.91;;;13.66;100.00
80986;BME280;70451;51.226;6.412;2023-10-09T00:37:52;101389.97;;;13.68;100.00
80986;BME280;70451;51.226;6.412;2023-10-09T00:40:12;101388.19;;;13.68;100.00
80986;BME280;70451;51.226;6.412;2023-10-09T00:42:28;101392.31;;;13.72;100.00
80986;BME280;70451;51.226;6.412;2023-10-09T00:44:45;101387.00;;;13.74;100.00
80986;BME280;70451;51.226;6.412;2023-10-09T00:47:07;101385.16;;;13.76;100.00
80986;BME280;70451;51.226;6.412;2023-10-09T00:49:37;101385.75;;;13.81;100.00
80986;BME280;70451;51.226;6.412;2023-10-09T00:51:56;101372.56;;;13.83;100.00
80986;BME280;70451;51.226;6.412;2023-10-09T00:54:11;101360.31;;;13.83;100.00
80986;BME280;70451;51.226;6.412;2023-10-09T00:56:30;101353.94;;;13.87;100.00
80986;BME280;70451;51.226;6.412;2023-10-09T00:58:57;101361.09;;;13.85;100.00
80986;BME280;70451;51.226;6.412;2023-10-09T01:01:22;101360.91;;;13.88;100.00
80986;BME280;70451;51.226;6.412;2023-10-09T01:03:44;101358.97;;;13.92;100.00
80986;BME280;70451;51.226;6.412;2023-10-09T01:06:01;101359.56;;;13.97;100.00
80986;BME280;70451;51.226;6.412;2023-10-09T01:08:27;101367.34;;;13.98;100.00
80986;BME280;70451;51.226;6.412;2023-10-09T01:10:47;101357.44;;;14.03;100.00
80986;BME280;70451;51.226;6.412;2023-10-09T01:13:06;101351.28;;;14.04;100.00
80986;BME280;70451;51.226;6.412;2023-10-09T01:15:24;101350.34;;;14.05;100.00
80986;BME280;70451;51.226;6.412;2023-10-09T01:17:59;101345.78;;;14.09;100.00
80986;BME280;70451;51.226;6.412;2023-10-09T01:20:22;101344.75;;;14.11;100.00
80986;BME280;70451;51.226;6.412;2023-10-09T01:22:43;101344.56;;;14.15;100.00
80986;BME280;70451;51.226;6.412;2023-10-09T01:24:59;101341.97;;;14.15;100.00
80986;BME280;70451;51.226;6.412;2023-10-09T01:27:14;101339.44;;;14.13;100.00
80986;BME280;70451;51.226;6.412;2023-10-09T01:29:30;101331.47;;;14.15;100.00
80986;BME280;70451;51.226;6.412;2023-10-09T01:34:06;101333.22;;;14.14;100.00
80986;BME280;70451;51.226;6.412;2023-10-09T01:36:25;101331.47;;;14.15;100.00
80986;BME280;70451;51.226;6.412;2023-10-09T01:38:46;101328.53;;;14.21;100.00
80986;BME280;70451;51.226;6.412;2023-10-09T01:41:03;101338.31;;;14.17;100.00
80986;BME280;70451;51.226;6.412;2023-10-09T01:43:23;101344.50;;;14.16;100.00
80986;BME280;70451;51.226;6.412;2023-10-09T01:45:38;101343.66;;;14.16;100.00
80986;BME280;70451;51.226;6.412;2023-10-09T01:48:01;101344.69;;;14.13;100.00
80986;BME280;70451;51.226;6.412;2023-10-09T01:50:19;101354.22;;;14.14;100.00
80986;BME280;70451;51.226;6.412;2023-10-09T01:52:38;101358.47;;;14.17;100.00
80986;BME280;70451;51.226;6.412;2023-10-09T01:54:53;101357.63;;;14.16;100.00
80986;BME280;70451;51.226;6.412;2023-10-09T01:57:09;101348.97;;;14.14;100.00
80986;BME280;70451;51.226;6.412;2023-10-09T01:59:27;101358.56;;;14.15;100.00
80986;BME280;70451;51.226;6.412;2023-10-09T02:01:42;101349.81;;;14.15;100.00
80986;BME280;70451;51.226;6.412;2023-10-09T02:04:03;101352.56;;;14.13;100.00
80986;BME280;70451;51.226;6.412;2023-10-09T02:06:24;101350.88;;;14.12;100.00
80986;BME280;70451;51.226;6.412;2023-10-09T02:08:44;101357.88;;;14.11;100.00
80986;BME280;70451;51.226;6.412;2023-10-09T02:11:04;101367.59;;;14.09;100.00
80986;BME280;70451;51.226;6.412;2023-10-09T02:13:22;101350.09;;;14.10;100.00
80986;BME280;70451;51.226;6.412;2023-10-09T02:15:50;101346.63;;;14.09;100.00
80986;BME280;70451;51.226;6.412;2023-10-09T02:18:05;101353.63;;;14.09;100.00
80986;BME280;70451;51.226;6.412;2023-10-09T02:20:32;101342.28;;;14.08;100.00
80986;BME280;70451;51.226;6.412;2023-10-09T02:22:52;101347.31;;;14.13;100.00
80986;BME280;70451;51.226;6.412;2023-10-09T02:25:08;101338.47;;;14.14;100.00
80986;BME280;70451;51.226;6.412;2023-10-09T02:27:26;101343.84;;;14.13;100.00
80986;BME280;70451;51.226;6.412;2023-10-09T02:30:08;101340.28;;;14.14;100.00
80986;BME280;70451;51.226;6.412;2023-10-09T02:32:42;101335.69;;;14.17;100.00
80986;BME280;70451;51.226;6.412;2023-10-09T02:34:57;101335.78;;;14.16;100.00
80986;BME280;70451;51.226;6.412;2023-10-09T02:37:23;101328.94;;;14.13;100.00
80986;BME280;70451;51.226;6.412;2023-10-09T02:39:40;101336.63;;;14.16;100.00
80986;BME280;70451;51.226;6.412;2023-10-09T02:42:02;101333.34;;;14.13;100.00
80986;BME280;70451;51.226;6.412;2023-10-09T02:44:30;101330.44;;;14.17;100.00
80986;BME280;70451;51.226;6.412;2023-10-09T02:46:49;101333.06;;;14.17;100.00
80986;BME280;70451;51.226;6.412;2023-10-09T02:49:05;101333.78;;;14.21;100.00
80986;BME280;70451;51.226;6.412;2023-10-09T02:51:26;101334.78;;;14.18;100.00
80986;BME280;70451;51.226;6.412;2023-10-09T02:53:41;101346.97;;;14.19;100.00
80986;BME280;70451;51.226;6.412;2023-10-09T02:55:57;101347.72;;;14.21;100.00
80986;BME280;70451;51.226;6.412;2023-10-09T02:58:28;101341.66;;;14.21;100.00
80986;BME280;70451;51.226;6.412;2023-10-09T03:00:44;101332.94;;;14.20;100.00
80986;BME280;70451;51.226;6.412;2023-10-09T03:02:59;101334.69;;;14.20;100.00
80986;BME280;70451;51.226;6.412;2023-10-09T03:05:16;101331.03;;;14.22;100.00
80986;BME280;70451;51.226;6.412;2023-10-09T03:07:31;101338.91;;;14.22;100.00
80986;BME280;70451;51.226;6.412;2023-10-09T03:09:46;101331.88;;;14.23;100.00
80986;BME280;70451;51.226;6.412;2023-10-09T03:12:04;101327.41;;;14.25;100.00
80986;BME280;70451;51.226;6.412;2023-10-09T03:14:21;101324.00;;;14.23;100.00
80986;BME280;70451;51.226;6.412;2023-10-09T03:16:41;101323.94;;;14.24;100.00
80986;BME280;70451;51.226;6.412;2023-10-09T03:18:58;101324.88;;;14.23;100.00
80986;BME280;70451;51.226;6.412;2023-10-09T03:21:14;101323.09;;;14.24;100.00
80986;BME280;70451;51.226;6.412;2023-10-09T03:23:30;101325.78;;;14.22;100.00
80986;BME280;70451;51.226;6.412;2023-10-09T03:25:45;101333.59;;;14.24;100.00
80986;BME280;70451;51.226;6.412;2023-10-09T03:28:01;101322.06;;;14.26;100.00
80986;BME280;70451;51.226;6.412;2023-10-09T03:30:17;101318.53;;;14.27;100.00
80986;BME280;70451;51.226;6.412;2023-10-09T03:32:38;101324.63;;;14.28;100.00
80986;BME280;70451;51.226;6.412;2023-10-09T03:34:53;101310.53;;;14.29;100.00
80986;BME280;70451;51.226;6.412;2023-10-09T03:37:11;101308.03;;;14.27;100.00
80986;BME280;70451;51.226;6.412;2023-10-09T03:39:37;101300.03;;;14.29;100.00
80986;BME280;70451;51.226;6.412;2023-10-09T03:41:52;101292.16;;;14.29;100.00
80986;BME280;70451;51.226;6.412;2023-10-09T03:44:09;101280.81;;;14.28;100.00
80986;BME280;70451;51.226;6.412;2023-10-09T03:46:25;101275.84;;;14.24;100.00
80986;BME280;70451;51.226;6.412;2023-10-09T03:48:50;101286.25;;;14.25;100.00
80986;BME280;70451;51.226;6.412;2023-10-09T03:51:12;101300.31;;;14.24;100.00
80986;BME280;70451;51.226;6.412;2023-10-09T03:53:30;101311.66;;;14.25;100.00
80986;BME280;70451;51.226;6.412;2023-10-09T03:55:45;101307.25;;;14.25;100.00
80986;BME280;70451;51.226;6.412;2023-10-09T03:58:01;101313.34;;;14.26;100.00
80986;BME280;70451;51.226;6.412;2023-10-09T04:00:16;101301.94;;;14.27;100.00
80986;BME280;70451;51.226;6.412;2023-10-09T04:02:33;101308.59;;;14.32;100.00
80986;BME280;70451;51.226;6.412;2023-10-09T04:04:48;101306.84;;;14.33;100.00
80986;BME280;70451;51.226;6.412;2023-10-09T04:07:05;101298.03;;;14.34;100.00
80986;BME280;70451;51.226;6.412;2023-10-09T04:09:22;101289.22;;;14.35;100.00
80986;BME280;70451;51.226;6.412;2023-10-09T04:11:37;101298.97;;;14.33;100.00
80986;BME280;70451;51.226;6.412;2023-10-09T04:13:57;101302.44;;;14.33;100.00
80986;BME280;70451;51.226;6.412;2023-10-09T04:16:15;101305.13;;;14.32;100.00
80986;BME280;70451;51.226;6.412;2023-10-09T04:18:46;101305.22;;;14.30;100.00
80986;BME280;70451;51.226;6.412;2023-10-09T04:21:02;101300.91;;;14.29;100.00
80986;BME280;70451;51.226;6.412;2023-10-09T04:23:33;101289.81;;;14.24;100.00
80986;BME280;70451;51.226;6.412;2023-10-09T04:25:51;101290.59;;;14.26;100.00
80986;BME280;70451;51.226;6.412;2023-10-09T04:28:06;101273.22;;;14.24;100.00
80986;BME280;70451;51.226;6.412;2023-10-09T04:30:26;101278.38;;;14.25;100.00
80986;BME280;70451;51.226;6.412;2023-10-09T04:32:41;101271.53;;;14.23;100.00
80986;BME280;70451;51.226;6.412;2023-10-09T04:35:01;101277.69;;;14.22;100.00
80986;BME280;70451;51.226;6.412;2023-10-09T04:37:34;101286.34;;;14.24;100.00
80986;BME280;70451;51.226;6.412;2023-10-09T04:39:52;101272.44;;;14.22;100.00
80986;BME280;70451;51.226;6.412;2023-10-09T04:42:26;101269.75;;;14.23;100.00
80986;BME280;70451;51.226;6.412;2023-10-09T04:44:51;101282.09;;;14.21;100.00
80986;BME280;70451;51.226;6.412;2023-10-09T04:47:19;101279.47;;;14.21;100.00
80986;BME280;70451;51.226;6.412;2023-10-09T04:49:36;101283.81;;;14.22;100.00
80986;BME280;70451;51.226;6.412;2023-10-09T04:52:18;101282.78;;;14.25;100.00
80986;BME280;70451;51.226;6.412;2023-10-09T04:54:34;101280.16;;;14.25;100.00
80986;BME280;70451;51.226;6.412;2023-10-09T04:57:16;101264.16;;;14.29;100.00
80986;BME280;70451;51.226;6.412;2023-10-09T04:59:33;101273.72;;;14.30;100.00
80986;BME280;70451;51.226;6.412;2023-10-09T05:02:01;101271.78;;;14.34;100.00
80986;BME280;70451;51.226;6.412;2023-10-09T05:04:19;101263.31;;;14.29;100.00
80986;BME280;70451;51.226;6.412;2023-10-09T05:06:54;101270.31;;;14.28;100.00
80986;BME280;70451;51.226;6.412;2023-10-09T05:09:10;101272.88;;;14.30;100.00
80986;BME280;70451;51.226;6.412;2023-10-09T05:11:28;101272.22;;;14.26;100.00
80986;BME280;70451;51.226;6.412;2023-10-09T05:14:08;101255.78;;;14.23;100.00
80986;BME280;70451;51.226;6.412;2023-10-09T05:16:29;101249.69;;;14.22;100.00
80986;BME280;70451;51.226;6.412;2023-10-09T05:18:45;101248.00;;;14.21;100.00
80986;BME280;70451;51.226;6.412;2023-10-09T05:21:11;101247.91;;;14.23;100.00
80986;BME280;70451;51.226;6.412;2023-10-09T05:23:44;101257.47;;;14.24;100.00
80986;BME280;70451;51.226;6.412;2023-10-09T05:26:03;101260.19;;;14.22;100.00
80986;BME280;70451;51.226;6.412;2023-10-09T05:28:39;101279.59;;;14.20;100.00
80986;BME280;70451;51.226;6.412;2023-10-09T05:31:03;101293.63;;;14.19;100.00
80986;BME280;70451;51.226;6.412;2023-10-09T05:33:22;101296.19;;;14.20;100.00
80986;BME280;70451;51.226;6.412;2023-10-09T05:35:43;101288.88;;;14.25;100.00
80986;BME280;70451;51.226;6.412;2023-10-09T05:38:19;101286.19;;;14.27;100.00
80986;BME280;70451;51.226;6.412;2023-10-09T05:40:41;101290.41;;;14.29;100.00
80986;BME280;70451;51.226;6.412;2023-10-09T05:42:58;101300.81;;;14.31;100.00
80986;BME280;70451;51.226;6.412;2023-10-09T05:45:15;101309.63;;;14.30;100.00
80986;BME280;70451;51.226;6.412;2023-10-09T05:47:51;101304.22;;;14.33;100.00
80986;BME280;70451;51.226;6.412;2023-10-09T05:50:06;101318.00;;;14.36;100.00
80986;BME280;70451;51.226;6.412;2023-10-09T05:52:25;101309.47;;;14.33;100.00
80986;BME280;70451;51.226;6.412;2023-10-09T05:54:47;101302.59;;;14.30;100.00
80986;BME280;70451;51.226;6.412;2023-10-09T05:57:21;101300.81;;;14.31;100.00
80986;BME280;70451;51.226;6.412;2023-10-09T05:59:55;101288.53;;;14.31;100.00
80986;BME280;70451;51.226;6.412;2023-10-09T06:02:29;101296.94;;;14.38;100.00
80986;BME280;70451;51.226;6.412;2023-10-09T06:05:19;101297.78;;;14.38;100.00
80986;BME280;70451;51.226;6.412;2023-10-09T06:07:55;101306.50;;;14.39;100.00
80986;BME280;70451;51.226;6.412;2023-10-09T06:10:21;101316.94;;;14.40;100.00
80986;BME280;70451;51.226;6.412;2023-10-09T06:12:52;101322.09;;;14.42;100.00
80986;BME280;70451;51.226;6.412;2023-10-09T06:15:18;101322.09;;;14.42;100.00
80986;BME280;70451;51.226;6.412;2023-10-09T06:17:45;101327.94;;;14.47;100.00
80986;BME280;70451;51.226;6.412;2023-10-09T06:20:06;101338.34;;;14.48;100.00
80986;BME280;70451;51.226;6.412;2023-10-09T06:22:41;101346.13;;;14.50;100.00
80986;BME280;70451;51.226;6.412;2023-10-09T06:25:12;101345.03;;;14.54;100.00
80986;BME280;70451;51.226;6.412;2023-10-09T06:27:27;101351.72;;;14.60;100.00
80986;BME280;70451;51.226;6.412;2023-10-09T06:29:45;101352.41;;;14.63;100.00
80986;BME280;70451;51.226;6.412;2023-10-09T06:32:07;101370.44;;;14.69;100.00
80986;BME280;70451;51.226;6.412;2023-10-09T06:34:34;101371.78;;;14.76;100.00
80986;BME280;70451;51.226;6.412;2023-10-09T06:37:00;101377.59;;;14.81;100.00
80986;BME280;70451;51.226;6.412;2023-10-09T06:39:21;101374.97;;;14.81;100.00
80986;BME280;70451;51.226;6.412;2023-10-09T06:41:54;101361.84;;;14.81;100.00
80986;BME280;70451;51.226;6.412;2023-10-09T06:44:26;101367.94;;;14.82;100.00
80986;BME280;70451;51.226;6.412;2023-10-09T06:47:01;101370.38;;;14.85;100.00
80986;BME280;70451;51.226;6.412;2023-10-09T06:49:23;101379.94;;;14.86;100.00
80986;BME280;70451;51.226;6.412;2023-10-09T06:51:44;101373.69;;;14.88;100.00
80986;BME280;70451;51.226;6.412;2023-10-09T06:54:02;101373.31;;;14.95;100.00
80986;BME280;70451;51.226;6.412;2023-10-09T06:56:30;101375.03;;;14.96;100.00
80986;BME280;70451;51.226;6.412;2023-10-09T06:58:46;101383.56;;;14.99;100.00
80986;BME280;70451;51.226;6.412;2023-10-09T07:01:03;101380.59;;;15.05;100.00
80986;BME280;70451;51.226;6.412;2023-10-09T07:03:37;101381.09;;;15.12;100.00
80986;BME280;70451;51.226;6.412;2023-10-09T07:06:10;101382.59;;;15.16;100.00
80986;BME280;70451;51.226;6.412;2023-10-09T07:09:02;101367.59;;;15.18;100.00
80986;BME280;70451;51.226;6.412;2023-10-09T07:11:21;101360.47;;;15.20;100.00
80986;BME280;70451;51.226;6.412;2023-10-09T07:13:37;101366.28;;;15.25;100.00
80986;BME280;70451;51.226;6.412;2023-10-09T07:15:52;101366.09;;;15.28;99.72
80986;BME280;70451;51.226;6.412;2023-10-09T07:18:26;101353.69;;;15.30;100.00
80986;BME280;70451;51.226;6.412;2023-10-09T07:20:56;101372.66;;;15.35;98.76
80986;BME280;70451;51.226;6.412;2023-10-09T07:23:14;101366.38;;;15.38;99.63
80986;BME280;70451;51.226;6.412;2023-10-09T07:25:29;101361.91;;;15.40;99.92
80986;BME280;70451;51.226;6.412;2023-10-09T07:27:57;101366.94;;;15.43;99.43
80986;BME280;70451;51.226;6.412;2023-10-09T07:30:16;101370.25;;;15.46;99.58
80986;BME280;70451;51.226;6.412;2023-10-09T07:32:44;101368.47;;;15.47;99.41
80986;BME280;70451;51.226;6.412;2023-10-09T07:35:03;101369.03;;;15.52;98.76
80986;BME280;70451;51.226;6.412;2023-10-09T07:37:23;101374.25;;;15.53;97.53
80986;BME280;70451;51.226;6.412;2023-10-09T07:39:38;101375.16;;;15.52;98.08
80986;BME280;70451;51.226;6.412;2023-10-09T07:42:00;101366.34;;;15.53;97.77
80986;BME280;70451;51.226;6.412;2023-10-09T07:44:30;101348.59;;;15.57;98.13
80986;BME280;70451;51.226;6.412;2023-10-09T07:46:51;101350.19;;;15.59;98.64
80986;BME280;70451;51.226;6.412;2023-10-09T07:49:07;101350.75;;;15.64;97.03
80986;BME280;70451;51.226;6.412;2023-10-09T07:51:27;101348.59;;;15.71;96.83
80986;BME280;70451;51.226;6.412;2023-10-09T07:53:52;101345.63;;;15.77;96.76
80986;BME280;70451;51.226;6.412;2023-10-09T07:56:25;101343.22;;;15.87;95.98
80986;BME280;70451;51.226;6.412;2023-10-09T07:58:45;101341.81;;;15.95;95.50
80986;BME280;70451;51.226;6.412;2023-10-09T08:01:03;101339.75;;;16.00;94.85
80986;BME280;70451;51.226;6.412;2023-10-09T08:03:22;101323.94;;;16.00;94.52
80986;BME280;70451;51.226;6.412;2023-10-09T08:05:42;101328.81;;;16.06;95.27
80986;BME280;70451;51.226;6.412;2023-10-09T08:08:01;101313.78;;;16.09;94.13
80986;BME280;70451;51.226;6.412;2023-10-09T08:10:39;101318.88;;;16.12;94.38
80986;BME280;70451;51.226;6.412;2023-10-09T08:13:13;101338.59;;;16.19;93.81
80986;BME280;70451;51.226;6.412;2023-10-09T08:15:58;101361.09;;;16.37;93.91
80986;BME280;70451;51.226;6.412;2023-10-09T08:18:16;101386.41;;;16.39;93.59
80986;BME280;70451;51.226;6.412;2023-10-09T08:20:43;101389.88;;;16.40;92.46
80986;BME280;70451;51.226;6.412;2023-10-09T08:23:13;101405.69;;;16.40;92.72
80986;BME280;70451;51.226;6.412;2023-10-09T08:25:37;101427.59;;;16.40;91.52
80986;BME280;70451;51.226;6.412;2023-10-09T08:28:12;101416.69;;;16.47;92.85
80986;BME280;70451;51.226;6.412;2023-10-09T08:30:30;101390.44;;;16.45;92.41
80986;BME280;70451;51.226;6.412;2023-10-09T08:32:56;101366.41;;;16.50;93.62
80986;BME280;70451;51.226;6.412;2023-10-09T08:35:43;101378.97;;;16.46;93.77
80986;BME280;70451;51.226;6.412;2023-10-09T08:38:03;101397.66;;;16.41;92.89
80986;BME280;70451;51.226;6.412;2023-10-09T08:40:29;101387.81;;;16.31;93.89
80986;BME280;70451;51.226;6.412;2023-10-09T08:42:52;101375.91;;;16.25;94.11
80986;BME280;70451;51.226;6.412;2023-10-09T08:45:09;101376.00;;;16.24;95.33
80986;BME280;70451;51.226;6.412;2023-10-09T08:47:29;101370.63;;;16.25;94.65
80986;BME280;70451;51.226;6.412;2023-10-09T08:49:45;101369.31;;;16.32;93.56
80986;BME280;70451;51.226;6.412;2023-10-09T08:52:01;101369.34;;;16.45;93.76
80986;BME280;70451;51.226;6.412;2023-10-09T08:54:18;101363.78;;;16.50;92.66
80986;BME280;70451;51.226;6.412;2023-10-09T08:56:34;101359.72;;;16.58;92.75
80986;BME280;70451;51.226;6.412;2023-10-09T08:58:55;101350.22;;;16.56;91.85
80986;BME280;70451;51.226;6.412;2023-10-09T09:01:16;101378.63;;;16.65;91.53
80986;BME280;70451;51.226;6.412;2023-10-09T09:03:40;101349.25;;;16.71;92.50
80986;BME280;70451;51.226;6.412;2023-10-09T09:06:00;101334.84;;;16.76;92.20
80986;BME280;70451;51.226;6.412;2023-10-09T09:08:25;101328.50;;;16.79;90.68
80986;BME280;70451;51.226;6.412;2023-10-09T09:10:43;101329.78;;;16.86;90.47
80986;BME280;70451;51.226;6.412;2023-10-09T09:13:02;101330.66;;;16.99;90.78
80986;BME280;70451;51.226;6.412;2023-10-09T09:15:19;101322.31;;;17.05;90.62
80986;BME280;70451;51.226;6.412;2023-10-09T09:17:35;101320.16;;;17.12;89.95
80986;BME280;70451;51.226;6.412;2023-10-09T09:19:52;101318.66;;;17.20;89.48
80986;BME280;70451;51.226;6.412;2023-10-09T09:22:07;101305.38;;;17.22;88.59
80986;BME280;70451;51.226;6.412;2023-10-09T09:24:29;101319.94;;;17.28;88.01
80986;BME280;70451;51.226;6.412;2023-10-09T09:26:49;101313.84;;;17.40;88.90
80986;BME280;70451;51.226;6.412;2023-10-09T09:29:23;101306.19;;;17.48;88.03
80986;BME280;70451;51.226;6.412;2023-10-09T09:31:51;101306.00;;;17.51;86.88
80986;BME280;70451;51.226;6.412;2023-10-09T09:34:08;101309.06;;;17.57;86.60
80986;BME280;70451;51.226;6.412;2023-10-09T09:36:33;101313.50;;;17.70;86.48
80986;BME280;70451;51.226;6.412;2023-10-09T09:38:49;101314.03;;;17.75;85.97
80986;BME280;70451;51.226;6.412;2023-10-09T09:41:04;101310.50;;;17.87;84.75
80986;BME280;70451;51.226;6.412;2023-10-09T09:43:22;101313.66;;;17.92;84.11
80986;BME280;70451;51.226;6.412;2023-10-09T09:45:38;101312.38;;;17.97;85.49
80986;BME280;70451;51.226;6.412;2023-10-09T09:48:05;101310.78;;;18.08;84.94
80986;BME280;70451;51.226;6.412;2023-10-09T09:50:28;101326.28;;;18.12;85.41
80986;BME280;70451;51.226;6.412;2023-10-09T09:52:44;101327.34;;;18.10;84.46
80986;BME280;70451;51.226;6.412;2023-10-09T09:55:02;101318.25;;;18.14;82.18
80986;BME280;70451;51.226;6.412;2023-10-09T09:57:18;101324.28;;;18.16;82.85
80986;BME280;70451;51.226;6.412;2023-10-09T09:59:41;101330.16;;;18.19;83.63
80986;BME280;70451;51.226;6.412;2023-10-09T10:02:05;101330.16;;;18.19;82.17
80986;BME280;70451;51.226;6.412;2023-10-09T10:04:26;101324.50;;;18.36;82.13
80986;BME280;70451;51.226;6.412;2023-10-09T10:06:43;101325.00;;;18.42;81.40
80986;BME280;70451;51.226;6.412;2023-10-09T10:09:00;101336.28;;;18.32;82.49
80986;BME280;70451;51.226;6.412;2023-10-09T10:11:42;101334.22;;;18.36;82.07
80986;BME280;70451;51.226;6.412;2023-10-09T10:13:59;101335.97;;;18.48;81.72
80986;BME280;70451;51.226;6.412;2023-10-09T10:16:16;101343.06;;;18.48;82.29
80986;BME280;70451;51.226;6.412;2023-10-09T10:21:36;101353.00;;;18.44;81.65
80986;BME280;70451;51.226;6.412;2023-10-09T10:24:04;101353.50;;;18.49;82.98
80986;BME280;70451;51.226;6.412;2023-10-09T10:26:25;101351.56;;;18.40;82.97
80986;BME280;70451;51.226;6.412;2023-10-09T10:29:14;101347.22;;;18.39;82.20
80986;BME280;70451;51.226;6.412;2023-10-09T10:31:53;101354.22;;;18.64;82.70
80986;BME280;70451;51.226;6.412;2023-10-09T10:34:09;101360.06;;;18.80;82.51
80986;BME280;70451;51.226;6.412;2023-10-09T10:36:26;101364.47;;;18.68;81.28
80986;BME280;70451;51.226;6.412;2023-10-09T10:38:44;101360.75;;;18.71;82.41
80986;BME280;70451;51.226;6.412;2023-10-09T10:41:22;101366.53;;;18.76;83.48
80986;BME280;70451;51.226;6.412;2023-10-09T10:43:40;101375.81;;;18.58;81.52
80986;BME280;70451;51.226;6.412;2023-10-09T10:48:19;101375.25;;;18.65;81.36
80986;BME280;70451;51.226;6.412;2023-10-09T10:50:57;101380.66;;;18.88;79.75
80986;BME280;70451;51.226;6.412;2023-10-09T10:53:13;101381.22;;;18.80;79.93
80986;BME280;70451;51.226;6.412;2023-10-09T10:55:31;101380.75;;;18.86;80.23
80986;BME280;70451;51.226;6.412;2023-10-09T10:57:49;101380.16;;;18.83;80.27
80986;BME280;70451;51.226;6.412;2023-10-09T11:00:25;101382.25;;;19.01;81.47
80986;BME280;70451;51.226;6.412;2023-10-09T11:02:58;101369.97;;;18.89;79.89
80986;BME280;70451;51.226;6.412;2023-10-09T11:05:31;101370.19;;;18.86;81.05
80986;BME280;70451;51.226;6.412;2023-10-09T11:07:57;101376.03;;;18.78;81.46
80986;BME280;70451;51.226;6.412;2023-10-09T11:10:13;101372.81;;;18.86;81.52
80986;BME280;70451;51.226;6.412;2023-10-09T11:14:59;101362.22;;;18.75;81.31
80986;BME280;70451;51.226;6.412;2023-10-09T11:17:22;101372.66;;;18.76;81.06
80986;BME280;70451;51.226;6.412;2023-10-09T11:19:40;101367.66;;;18.85;79.38
80986;BME280;70451;51.226;6.412;2023-10-09T11:21:59;101372.81;;;18.86;80.10
80986;BME280;70451;51.226;6.412;2023-10-09T11:24:21;101371.72;;;19.12;81.81
80986;BME280;70451;51.226;6.412;2023-10-09T11:26:39;101371.03;;;18.87;81.32
80986;BME280;70451;51.226;6.412;2023-10-09T11:29:07;101365.47;;;19.13;80.67
80986;BME280;70451;51.226;6.412;2023-10-09T11:31:29;101370.44;;;19.18;81.54
80986;BME280;70451;51.226;6.412;2023-10-09T11:33:51;101364.97;;;19.08;81.70
80986;BME280;70451;51.226;6.412;2023-10-09T11:36:07;101362.63;;;19.28;79.88
80986;BME280;70451;51.226;6.412;2023-10-09T11:38:24;101345.31;;;19.24;79.37
80986;BME280;70451;51.226;6.412;2023-10-09T11:40:40;101341.19;;;19.20;79.65
80986;BME280;70451;51.226;6.412;2023-10-09T11:43:07;101342.78;;;19.33;79.00
80986;BME280;70451;51.226;6.412;2023-10-09T11:45:28;101347.19;;;19.10;79.79
80986;BME280;70451;51.226;6.412;2023-10-09T11:47:48;101347.19;;;19.10;77.97
80986;BME280;70451;51.226;6.412;2023-10-09T11:50:16;101346.84;;;19.15;79.78
80986;BME280;70451;51.226;6.412;2023-10-09T11:52:32;101356.56;;;19.14;80.09
80986;BME280;70451;51.226;6.412;2023-10-09T11:54:51;101365.56;;;19.12;80.85
80986;BME280;70451;51.226;6.412;2023-10-09T11:57:06;101362.09;;;19.11;81.46
80986;BME280;70451;51.226;6.412;2023-10-09T11:59:21;101352.28;;;19.25;79.18
80986;BME280;70451;51.226;6.412;2023-10-09T12:01:38;101355.88;;;19.35;79.46
80986;BME280;70451;51.226;6.412;2023-10-09T12:03:57;101357.59;;;19.36;79.84
80986;BME280;70451;51.226;6.412;2023-10-09T12:06:12;101361.00;;;19.49;80.33
80986;BME280;70451;51.226;6.412;2023-10-09T12:08:30;101348.69;;;19.37;79.11
80986;BME280;70451;51.226;6.412;2023-10-09T12:10:45;101354.34;;;19.43;79.62
80986;BME280;70451;51.226;6.412;2023-10-09T12:13:03;101345.69;;;19.41;78.03
80986;BME280;70451;51.226;6.412;2023-10-09T12:15:19;101339.78;;;19.38;79.56
80986;BME280;70451;51.226;6.412;2023-10-09T12:17:36;101336.00;;;19.53;79.39
80986;BME280;70451;51.226;6.412;2023-10-09T12:19:58;101333.88;;;19.34;78.29
80986;BME280;70451;51.226;6.412;2023-10-09T12:22:13;101331.81;;;19.27;78.62
80986;BME280;70451;51.226;6.412;2023-10-09T12:24:33;101333.91;;;19.45;80.08